Terminal Aerodrome Forecast
Issued by NWS

Home | Current Version | Previous Version | Graphics & Text | Print | Product List | Glossary On
Versions: 1 2 3 4 5 6 7 8 9 10 11 12 13 14 15 16 17 18 19 20 21 22 23 24 25 26 27 28
000
FTUS43 KLOT 252114 AAA
TAFMDW
TAF AMD
KMDW 252114Z 2521/2618 15012G18KT P6SM FEW050 BKN250
     FM260100 16010KT P6SM SCT050 BKN150
     FM261500 18014G20KT P6SM VCSH SCT015 BKN040 PROB30 2616/2618
      4SM -TSRA BKN035CB=

USA.gov is the U.S. government's official web portal to all federal, state and local government web resources and services.